Terminal Aerodrome Forecast
Issued by NWS Boston, MA

Home | Current Version | Previous Version | Text Only | Print | Product List | Glossary On
Versions: 1 2 3 4 5 6 7 8 9 10 11 12 13 14 15 16 17 18 19 20 21 22 23 24 25 26 27 28 29 30 31 32 33 34 35 36 37 38 39 40
000
FTUS41 KBOX 011728
TAFPVD
TAF
KPVD 011728Z 0118/0218 29007KT P6SM FEW025 SCT130
     FM011900 29007KT P6SM SCT025 SCT100
     FM012300 31005KT P6SM SCT025 BKN090
     FM020600 05007KT 3SM -SN OVC030
     FM020800 06008KT 1/2SM SN OVC025
     FM021200 08009KT 1/4SM +SN OVC010
     FM021500 06010G20KT 1/2SM SNPL OVC003=

USA.gov is the U.S. government's official web portal to all federal, state and local government web resources and services.